sensor_id;sensor_type;location;lat;lon;timestamp;temperature;humidity
40291;DHT22;26000;48.304;13.626;2023-03-12T00:02:06;1.70;99.90
40291;DHT22;26000;48.304;13.626;2023-03-12T00:04:32;1.70;99.90
40291;DHT22;26000;48.304;13.626;2023-03-12T00:06:59;1.70;99.90
40291;DHT22;26000;48.304;13.626;2023-03-12T00:09:25;1.60;99.90
40291;DHT22;26000;48.304;13.626;2023-03-12T00:11:50;1.60;99.90
40291;DHT22;26000;48.304;13.626;2023-03-12T00:14:16;1.60;99.90
40291;DHT22;26000;48.304;13.626;2023-03-12T00:16:42;1.60;99.90
40291;DHT22;26000;48.304;13.626;2023-03-12T00:19:10;1.70;99.90
40291;DHT22;26000;48.304;13.626;2023-03-12T00:21:37;1.70;99.90
40291;DHT22;26000;48.304;13.626;2023-03-12T00:24:02;1.70;99.90
40291;DHT22;26000;48.304;13.626;2023-03-12T00:26:28;1.60;99.90
40291;DHT22;26000;48.304;13.626;2023-03-12T00:28:54;1.60;99.90
40291;DHT22;26000;48.304;13.626;2023-03-12T00:31:26;1.60;99.90
40291;DHT22;26000;48.304;13.626;2023-03-12T00:33:52;1.50;99.90
40291;DHT22;26000;48.304;13.626;2023-03-12T00:36:21;1.60;99.90
40291;DHT22;26000;48.304;13.626;2023-03-12T00:38:49;1.70;99.90
40291;DHT22;26000;48.304;13.626;2023-03-12T00:41:15;1.70;99.90
40291;DHT22;26000;48.304;13.626;2023-03-12T00:43:41;1.70;99.90
40291;DHT22;26000;48.304;13.626;2023-03-12T00:46:07;1.70;99.90
40291;DHT22;26000;48.304;13.626;2023-03-12T00:48:32;1.70;99.90
40291;DHT22;26000;48.304;13.626;2023-03-12T00:50:58;1.70;99.90
40291;DHT22;26000;48.304;13.626;2023-03-12T00:53:24;1.90;99.90
40291;DHT22;26000;48.304;13.626;2023-03-12T00:55:49;1.80;99.90
40291;DHT22;26000;48.304;13.626;2023-03-12T00:58:15;1.80;99.90
40291;DHT22;26000;48.304;13.626;2023-03-12T01:00:47;1.80;99.90
40291;DHT22;26000;48.304;13.626;2023-03-12T01:03:13;1.90;99.90
40291;DHT22;26000;48.304;13.626;2023-03-12T01:05:38;1.90;99.90
40291;DHT22;26000;48.304;13.626;2023-03-12T01:08:06;1.80;99.90
40291;DHT22;26000;48.304;13.626;2023-03-12T01:10:32;1.80;99.90
40291;DHT22;26000;48.304;13.626;2023-03-12T01:12:58;1.60;99.90
40291;DHT22;26000;48.304;13.626;2023-03-12T01:15:24;1.70;99.90
40291;DHT22;26000;48.304;13.626;2023-03-12T01:17:49;1.60;99.90
40291;DHT22;26000;48.304;13.626;2023-03-12T01:20:16;1.60;99.90
40291;DHT22;26000;48.304;13.626;2023-03-12T01:22:42;1.60;99.90
40291;DHT22;26000;48.304;13.626;2023-03-12T01:25:09;1.60;99.90
40291;DHT22;26000;48.304;13.626;2023-03-12T01:27:35;1.60;99.90
40291;DHT22;26000;48.304;13.626;2023-03-12T01:30:01;1.50;99.90
40291;DHT22;26000;48.304;13.626;2023-03-12T01:32:27;1.50;99.90
40291;DHT22;26000;48.304;13.626;2023-03-12T01:34:53;1.50;99.90
40291;DHT22;26000;48.304;13.626;2023-03-12T01:37:18;1.50;99.90
40291;DHT22;26000;48.304;13.626;2023-03-12T01:39:44;1.50;99.90
40291;DHT22;26000;48.304;13.626;2023-03-12T01:42:09;1.40;99.90
40291;DHT22;26000;48.304;13.626;2023-03-12T01:44:57;1.50;99.90
40291;DHT22;26000;48.304;13.626;2023-03-12T01:47:23;1.50;99.90
40291;DHT22;26000;48.304;13.626;2023-03-12T01:49:50;1.50;99.90
40291;DHT22;26000;48.304;13.626;2023-03-12T01:52:31;1.30;99.90
40291;DHT22;26000;48.304;13.626;2023-03-12T01:55:14;1.20;99.90
40291;DHT22;26000;48.304;13.626;2023-03-12T01:57:47;1.20;99.90
40291;DHT22;26000;48.304;13.626;2023-03-12T02:00:17;1.20;99.90
40291;DHT22;26000;48.304;13.626;2023-03-12T02:02:45;1.30;99.90
40291;DHT22;26000;48.304;13.626;2023-03-12T02:07:53;1.30;99.90
40291;DHT22;26000;48.304;13.626;2023-03-12T02:10:20;1.20;99.90
40291;DHT22;26000;48.304;13.626;2023-03-12T02:12:46;1.10;99.90
40291;DHT22;26000;48.304;13.626;2023-03-12T02:15:12;1.10;99.90
40291;DHT22;26000;48.304;13.626;2023-03-12T02:17:37;1.10;99.90
40291;DHT22;26000;48.304;13.626;2023-03-12T02:20:16;1.10;99.90
40291;DHT22;26000;48.304;13.626;2023-03-12T02:22:50;1.10;99.90
40291;DHT22;26000;48.304;13.626;2023-03-12T02:25:43;1.20;99.90
40291;DHT22;26000;48.304;13.626;2023-03-12T02:28:13;1.10;99.90
40291;DHT22;26000;48.304;13.626;2023-03-12T02:30:45;1.00;99.90
40291;DHT22;26000;48.304;13.626;2023-03-12T02:33:11;1.20;99.90
40291;DHT22;26000;48.304;13.626;2023-03-12T02:35:37;1.20;99.90
40291;DHT22;26000;48.304;13.626;2023-03-12T02:38:22;1.10;99.90
40291;DHT22;26000;48.304;13.626;2023-03-12T02:40:49;1.00;99.90
40291;DHT22;26000;48.304;13.626;2023-03-12T02:43:19;1.00;99.90
40291;DHT22;26000;48.304;13.626;2023-03-12T02:45:45;1.00;99.90
40291;DHT22;26000;48.304;13.626;2023-03-12T02:48:12;1.00;99.90
40291;DHT22;26000;48.304;13.626;2023-03-12T02:50:37;1.00;99.90
40291;DHT22;26000;48.304;13.626;2023-03-12T02:53:03;0.90;99.90
40291;DHT22;26000;48.304;13.626;2023-03-12T02:55:29;0.90;99.90
40291;DHT22;26000;48.304;13.626;2023-03-12T02:57:54;1.00;99.90
40291;DHT22;26000;48.304;13.626;2023-03-12T03:00:20;1.00;99.90
40291;DHT22;26000;48.304;13.626;2023-03-12T03:02:46;0.90;99.90
40291;DHT22;26000;48.304;13.626;2023-03-12T03:05:11;1.00;99.90
40291;DHT22;26000;48.304;13.626;2023-03-12T03:07:37;0.90;99.90
40291;DHT22;26000;48.304;13.626;2023-03-12T03:10:05;0.90;99.90
40291;DHT22;26000;48.304;13.626;2023-03-12T03:12:32;0.80;99.90
40291;DHT22;26000;48.304;13.626;2023-03-12T03:14:58;0.80;99.90
40291;DHT22;26000;48.304;13.626;2023-03-12T03:17:24;1.00;99.90
40291;DHT22;26000;48.304;13.626;2023-03-12T03:19:50;0.90;99.90
40291;DHT22;26000;48.304;13.626;2023-03-12T03:22:17;0.80;99.90
40291;DHT22;26000;48.304;13.626;2023-03-12T03:24:42;0.80;99.90
40291;DHT22;26000;48.304;13.626;2023-03-12T03:27:08;0.80;99.90
40291;DHT22;26000;48.304;13.626;2023-03-12T03:29:34;0.60;99.90
40291;DHT22;26000;48.304;13.626;2023-03-12T03:31:59;0.50;99.90
40291;DHT22;26000;48.304;13.626;2023-03-12T03:34:25;0.60;99.90
40291;DHT22;26000;48.304;13.626;2023-03-12T03:36:50;0.60;99.90
40291;DHT22;26000;48.304;13.626;2023-03-12T03:39:16;0.70;99.90
40291;DHT22;26000;48.304;13.626;2023-03-12T03:41:42;0.70;99.90
40291;DHT22;26000;48.304;13.626;2023-03-12T03:44:08;0.80;99.90
40291;DHT22;26000;48.304;13.626;2023-03-12T03:46:34;0.80;99.90
40291;DHT22;26000;48.304;13.626;2023-03-12T03:49:00;0.70;99.90
40291;DHT22;26000;48.304;13.626;2023-03-12T03:51:26;0.70;99.90
40291;DHT22;26000;48.304;13.626;2023-03-12T03:53:52;0.80;99.90
40291;DHT22;26000;48.304;13.626;2023-03-12T03:56:18;0.70;99.90
40291;DHT22;26000;48.304;13.626;2023-03-12T03:58:44;0.70;99.90
40291;DHT22;26000;48.304;13.626;2023-03-12T04:01:12;0.70;99.90
40291;DHT22;26000;48.304;13.626;2023-03-12T04:03:38;0.80;99.90
40291;DHT22;26000;48.304;13.626;2023-03-12T04:06:05;0.80;99.90
40291;DHT22;26000;48.304;13.626;2023-03-12T04:08:31;0.80;99.90
40291;DHT22;26000;48.304;13.626;2023-03-12T04:11:08;0.60;99.90
40291;DHT22;26000;48.304;13.626;2023-03-12T04:13:34;0.60;99.90
40291;DHT22;26000;48.304;13.626;2023-03-12T04:16:00;0.50;99.90
40291;DHT22;26000;48.304;13.626;2023-03-12T04:18:26;0.50;99.90
40291;DHT22;26000;48.304;13.626;2023-03-12T04:20:51;0.70;99.90
40291;DHT22;26000;48.304;13.626;2023-03-12T04:23:17;0.60;99.90
40291;DHT22;26000;48.304;13.626;2023-03-12T04:25:43;0.70;99.90
40291;DHT22;26000;48.304;13.626;2023-03-12T04:28:08;0.80;99.90
40291;DHT22;26000;48.304;13.626;2023-03-12T04:30:34;0.70;99.90
40291;DHT22;26000;48.304;13.626;2023-03-12T04:33:03;0.60;99.90
40291;DHT22;26000;48.304;13.626;2023-03-12T04:35:28;0.50;99.90
40291;DHT22;26000;48.304;13.626;2023-03-12T04:37:54;0.50;99.90
40291;DHT22;26000;48.304;13.626;2023-03-12T04:40:20;0.50;99.90
40291;DHT22;26000;48.304;13.626;2023-03-12T04:42:45;0.40;99.90
40291;DHT22;26000;48.304;13.626;2023-03-12T04:45:12;0.50;99.90
40291;DHT22;26000;48.304;13.626;2023-03-12T04:47:38;0.50;99.90
40291;DHT22;26000;48.304;13.626;2023-03-12T04:50:04;0.50;99.90
40291;DHT22;26000;48.304;13.626;2023-03-12T04:52:30;0.50;99.90
40291;DHT22;26000;48.304;13.626;2023-03-12T04:54:55;0.60;99.90
40291;DHT22;26000;48.304;13.626;2023-03-12T04:57:21;0.60;99.90
40291;DHT22;26000;48.304;13.626;2023-03-12T04:59:47;0.40;99.90
40291;DHT22;26000;48.304;13.626;2023-03-12T05:02:12;0.40;99.90
40291;DHT22;26000;48.304;13.626;2023-03-12T05:04:38;0.50;99.90
40291;DHT22;26000;48.304;13.626;2023-03-12T05:07:04;0.50;99.90
40291;DHT22;26000;48.304;13.626;2023-03-12T05:09:29;0.50;99.90
40291;DHT22;26000;48.304;13.626;2023-03-12T05:11:55;0.60;99.90
40291;DHT22;26000;48.304;13.626;2023-03-12T05:14:21;0.50;99.90
40291;DHT22;26000;48.304;13.626;2023-03-12T05:16:46;0.50;99.90
40291;DHT22;26000;48.304;13.626;2023-03-12T05:19:12;0.50;99.90
40291;DHT22;26000;48.304;13.626;2023-03-12T05:21:39;0.50;99.90
40291;DHT22;26000;48.304;13.626;2023-03-12T05:24:07;0.60;99.90
40291;DHT22;26000;48.304;13.626;2023-03-12T05:26:33;0.60;99.90
40291;DHT22;26000;48.304;13.626;2023-03-12T05:29:00;0.60;99.90
40291;DHT22;26000;48.304;13.626;2023-03-12T05:31:26;0.70;99.90
40291;DHT22;26000;48.304;13.626;2023-03-12T05:33:53;0.80;99.90
40291;DHT22;26000;48.304;13.626;2023-03-12T05:36:19;0.70;99.90
40291;DHT22;26000;48.304;13.626;2023-03-12T05:38:44;0.90;99.90
40291;DHT22;26000;48.304;13.626;2023-03-12T05:41:24;0.90;99.90
40291;DHT22;26000;48.304;13.626;2023-03-12T05:43:55;0.90;99.90
40291;DHT22;26000;48.304;13.626;2023-03-12T05:46:22;0.90;99.90
40291;DHT22;26000;48.304;13.626;2023-03-12T05:48:48;1.00;99.90
40291;DHT22;26000;48.304;13.626;2023-03-12T05:51:14;1.40;99.90
40291;DHT22;26000;48.304;13.626;2023-03-12T05:53:39;1.90;99.90
40291;DHT22;26000;48.304;13.626;2023-03-12T05:56:11;2.30;99.90
40291;DHT22;26000;48.304;13.626;2023-03-12T05:58:37;2.30;99.90
40291;DHT22;26000;48.304;13.626;2023-03-12T06:01:14;2.20;99.90
40291;DHT22;26000;48.304;13.626;2023-03-12T06:03:39;2.00;99.90
40291;DHT22;26000;48.304;13.626;2023-03-12T06:06:07;1.90;99.90
40291;DHT22;26000;48.304;13.626;2023-03-12T06:08:33;1.80;99.90
40291;DHT22;26000;48.304;13.626;2023-03-12T06:10:59;1.70;99.90
40291;DHT22;26000;48.304;13.626;2023-03-12T06:13:25;1.40;99.90
40291;DHT22;26000;48.304;13.626;2023-03-12T06:15:52;1.50;99.90
40291;DHT22;26000;48.304;13.626;2023-03-12T06:18:18;1.50;99.90
40291;DHT22;26000;48.304;13.626;2023-03-12T06:20:44;1.50;99.90
40291;DHT22;26000;48.304;13.626;2023-03-12T06:23:10;1.60;99.90
40291;DHT22;26000;48.304;13.626;2023-03-12T06:25:35;1.60;99.90
40291;DHT22;26000;48.304;13.626;2023-03-12T06:28:01;1.70;99.90
40291;DHT22;26000;48.304;13.626;2023-03-12T06:30:27;1.70;99.90
40291;DHT22;26000;48.304;13.626;2023-03-12T06:32:52;1.60;99.90
40291;DHT22;26000;48.304;13.626;2023-03-12T06:35:18;1.60;99.90
40291;DHT22;26000;48.304;13.626;2023-03-12T06:37:44;1.70;99.90
40291;DHT22;26000;48.304;13.626;2023-03-12T06:40:10;1.70;99.90
40291;DHT22;26000;48.304;13.626;2023-03-12T06:42:37;1.70;99.90
40291;DHT22;26000;48.304;13.626;2023-03-12T06:45:04;1.80;99.90
40291;DHT22;26000;48.304;13.626;2023-03-12T06:47:30;1.90;99.90
40291;DHT22;26000;48.304;13.626;2023-03-12T06:49:56;1.90;99.90
40291;DHT22;26000;48.304;13.626;2023-03-12T06:52:21;2.00;99.90
40291;DHT22;26000;48.304;13.626;2023-03-12T06:54:47;2.10;99.90
40291;DHT22;26000;48.304;13.626;2023-03-12T06:57:13;2.10;99.90
40291;DHT22;26000;48.304;13.626;2023-03-12T06:59:41;2.30;99.90
40291;DHT22;26000;48.304;13.626;2023-03-12T07:02:09;2.50;99.90
40291;DHT22;26000;48.304;13.626;2023-03-12T07:04:35;2.90;99.90
40291;DHT22;26000;48.304;13.626;2023-03-12T07:07:01;3.30;99.90
40291;DHT22;26000;48.304;13.626;2023-03-12T07:09:26;3.80;99.90
40291;DHT22;26000;48.304;13.626;2023-03-12T07:11:52;4.20;99.90
40291;DHT22;26000;48.304;13.626;2023-03-12T07:14:17;4.60;99.90
40291;DHT22;26000;48.304;13.626;2023-03-12T07:16:44;5.00;99.90
40291;DHT22;26000;48.304;13.626;2023-03-12T07:19:10;5.10;99.90
40291;DHT22;26000;48.304;13.626;2023-03-12T07:21:35;5.40;99.90
40291;DHT22;26000;48.304;13.626;2023-03-12T07:24:01;5.70;99.90
40291;DHT22;26000;48.304;13.626;2023-03-12T07:26:31;6.00;99.90
40291;DHT22;26000;48.304;13.626;2023-03-12T07:28:57;6.20;99.90
40291;DHT22;26000;48.304;13.626;2023-03-12T07:31:22;6.10;99.90
40291;DHT22;26000;48.304;13.626;2023-03-12T07:33:48;6.10;99.90
40291;DHT22;26000;48.304;13.626;2023-03-12T07:36:14;6.00;99.90
40291;DHT22;26000;48.304;13.626;2023-03-12T07:38:39;5.90;99.90
40291;DHT22;26000;48.304;13.626;2023-03-12T07:41:05;5.80;99.90
40291;DHT22;26000;48.304;13.626;2023-03-12T07:43:31;5.70;99.90
40291;DHT22;26000;48.304;13.626;2023-03-12T07:45:56;5.70;99.90
40291;DHT22;26000;48.304;13.626;2023-03-12T07:48:22;5.90;99.90
40291;DHT22;26000;48.304;13.626;2023-03-12T07:50:48;6.20;99.90
40291;DHT22;26000;48.304;13.626;2023-03-12T07:53:14;6.50;99.90
40291;DHT22;26000;48.304;13.626;2023-03-12T07:55:39;6.70;99.90
40291;DHT22;26000;48.304;13.626;2023-03-12T07:58:07;6.90;99.90
40291;DHT22;26000;48.304;13.626;2023-03-12T08:00:33;7.10;99.90
40291;DHT22;26000;48.304;13.626;2023-03-12T08:02:58;7.00;99.90
40291;DHT22;26000;48.304;13.626;2023-03-12T08:05:24;6.80;99.90
40291;DHT22;26000;48.304;13.626;2023-03-12T08:07:51;6.70;99.90
40291;DHT22;26000;48.304;13.626;2023-03-12T08:10:17;6.60;99.90
40291;DHT22;26000;48.304;13.626;2023-03-12T08:12:43;6.60;99.90
40291;DHT22;26000;48.304;13.626;2023-03-12T08:15:10;6.70;99.90
40291;DHT22;26000;48.304;13.626;2023-03-12T08:17:37;6.70;99.90
40291;DHT22;26000;48.304;13.626;2023-03-12T08:20:04;6.90;99.90
40291;DHT22;26000;48.304;13.626;2023-03-12T08:22:32;7.10;99.90
40291;DHT22;26000;48.304;13.626;2023-03-12T08:24:58;7.30;99.90
40291;DHT22;26000;48.304;13.626;2023-03-12T08:27:23;7.40;99.90
40291;DHT22;26000;48.304;13.626;2023-03-12T08:29:49;7.60;99.90
40291;DHT22;26000;48.304;13.626;2023-03-12T08:32:15;7.70;99.90
40291;DHT22;26000;48.304;13.626;2023-03-12T08:34:40;7.80;99.90
40291;DHT22;26000;48.304;13.626;2023-03-12T08:37:06;7.90;99.90
40291;DHT22;26000;48.304;13.626;2023-03-12T08:39:32;8.00;99.90
40291;DHT22;26000;48.304;13.626;2023-03-12T08:41:58;8.20;99.90
40291;DHT22;26000;48.304;13.626;2023-03-12T08:44:24;8.50;99.90
40291;DHT22;26000;48.304;13.626;2023-03-12T08:46:51;8.70;98.40
40291;DHT22;26000;48.304;13.626;2023-03-12T08:49:18;8.90;98.60
40291;DHT22;26000;48.304;13.626;2023-03-12T08:51:43;8.90;98.00
40291;DHT22;26000;48.304;13.626;2023-03-12T08:54:09;8.80;97.20
40291;DHT22;26000;48.304;13.626;2023-03-12T08:56:35;8.60;96.80
40291;DHT22;26000;48.304;13.626;2023-03-12T08:59:06;8.80;97.50
40291;DHT22;26000;48.304;13.626;2023-03-12T09:01:32;8.90;97.20
40291;DHT22;26000;48.304;13.626;2023-03-12T09:03:57;8.80;96.80
40291;DHT22;26000;48.304;13.626;2023-03-12T09:06:23;8.70;97.40
40291;DHT22;26000;48.304;13.626;2023-03-12T09:08:48;8.60;98.00
40291;DHT22;26000;48.304;13.626;2023-03-12T09:11:16;8.30;97.70
40291;DHT22;26000;48.304;13.626;2023-03-12T09:13:42;8.20;97.30
40291;DHT22;26000;48.304;13.626;2023-03-12T09:16:08;8.00;97.80
40291;DHT22;26000;48.304;13.626;2023-03-12T09:18:34;7.80;97.50
40291;DHT22;26000;48.304;13.626;2023-03-12T09:21:00;7.50;98.00
40291;DHT22;26000;48.304;13.626;2023-03-12T09:23:27;7.50;97.60
40291;DHT22;26000;48.304;13.626;2023-03-12T09:25:53;7.40;97.50
40291;DHT22;26000;48.304;13.626;2023-03-12T09:28:19;7.30;97.70
40291;DHT22;26000;48.304;13.626;2023-03-12T09:30:45;7.30;98.70
40291;DHT22;26000;48.304;13.626;2023-03-12T09:33:11;7.20;98.60
40291;DHT22;26000;48.304;13.626;2023-03-12T09:35:37;7.20;98.90
40291;DHT22;26000;48.304;13.626;2023-03-12T09:38:03;7.30;99.00
40291;DHT22;26000;48.304;13.626;2023-03-12T09:40:31;7.30;99.90
40291;DHT22;26000;48.304;13.626;2023-03-12T09:43:08;7.20;99.90
40291;DHT22;26000;48.304;13.626;2023-03-12T09:45:42;7.00;99.90
40291;DHT22;26000;48.304;13.626;2023-03-12T09:48:14;7.00;99.90
40291;DHT22;26000;48.304;13.626;2023-03-12T09:50:46;7.00;99.90
40291;DHT22;26000;48.304;13.626;2023-03-12T09:55:57;7.20;99.90
40291;DHT22;26000;48.304;13.626;2023-03-12T09:58:29;7.30;99.90
40291;DHT22;26000;48.304;13.626;2023-03-12T10:01:06;7.30;99.90
40291;DHT22;26000;48.304;13.626;2023-03-12T10:03:54;7.30;99.90
40291;DHT22;26000;48.304;13.626;2023-03-12T10:06:23;7.40;99.90
40291;DHT22;26000;48.304;13.626;2023-03-12T10:08:57;7.40;99.90
40291;DHT22;26000;48.304;13.626;2023-03-12T10:25:15;7.30;99.90
40291;DHT22;26000;48.304;13.626;2023-03-12T10:27:46;7.30;99.90
40291;DHT22;26000;48.304;13.626;2023-03-12T10:30:24;7.50;99.90
40291;DHT22;26000;48.304;13.626;2023-03-12T10:32:55;7.70;99.90
40291;DHT22;26000;48.304;13.626;2023-03-12T10:35:25;7.80;99.90
40291;DHT22;26000;48.304;13.626;2023-03-12T10:40:22;7.70;99.90
40291;DHT22;26000;48.304;13.626;2023-03-12T10:42:48;7.50;99.90
40291;DHT22;26000;48.304;13.626;2023-03-12T10:45:40;7.30;99.90
40291;DHT22;26000;48.304;13.626;2023-03-12T10:48:11;7.10;99.90
40291;DHT22;26000;48.304;13.626;2023-03-12T10:50:42;7.10;99.90
40291;DHT22;26000;48.304;13.626;2023-03-12T10:56:08;7.20;99.90
40291;DHT22;26000;48.304;13.626;2023-03-12T10:58:41;7.40;99.90
40291;DHT22;26000;48.304;13.626;2023-03-12T11:01:28;7.50;99.90
40291;DHT22;26000;48.304;13.626;2023-03-12T11:04:18;7.50;99.90
40291;DHT22;26000;48.304;13.626;2023-03-12T11:09:37;7.60;99.90
40291;DHT22;26000;48.304;13.626;2023-03-12T11:12:28;7.60;99.90
40291;DHT22;26000;48.304;13.626;2023-03-12T11:14:55;7.70;99.90
40291;DHT22;26000;48.304;13.626;2023-03-12T11:17:23;7.70;99.90
40291;DHT22;26000;48.304;13.626;2023-03-12T11:19:50;7.70;99.90
40291;DHT22;26000;48.304;13.626;2023-03-12T11:22:35;7.60;99.90
40291;DHT22;26000;48.304;13.626;2023-03-12T11:25:04;7.70;99.90
40291;DHT22;26000;48.304;13.626;2023-03-12T11:27:41;7.50;99.90
40291;DHT22;26000;48.304;13.626;2023-03-12T11:30:13;7.70;99.90
40291;DHT22;26000;48.304;13.626;2023-03-12T11:32:44;7.70;99.90
40291;DHT22;26000;48.304;13.626;2023-03-12T11:35:16;7.70;99.90
40291;DHT22;26000;48.304;13.626;2023-03-12T11:41:07;7.90;99.90
40291;DHT22;26000;48.304;13.626;2023-03-12T11:48:46;8.00;99.90
40291;DHT22;26000;48.304;13.626;2023-03-12T11:54:10;8.00;99.90
40291;DHT22;26000;48.304;13.626;2023-03-12T11:56:46;8.00;99.90
40291;DHT22;26000;48.304;13.626;2023-03-12T11:59:26;8.00;99.90
40291;DHT22;26000;48.304;13.626;2023-03-12T12:02:30;8.00;99.90
40291;DHT22;26000;48.304;13.626;2023-03-12T12:10:40;7.80;99.90
40291;DHT22;26000;48.304;13.626;2023-03-12T12:13:15;7.80;99.90
40291;DHT22;26000;48.304;13.626;2023-03-12T12:27:28;7.90;99.90
40291;DHT22;26000;48.304;13.626;2023-03-12T12:35:32;8.00;99.90
40291;DHT22;26000;48.304;13.626;2023-03-12T12:38:15;8.00;99.90
40291;DHT22;26000;48.304;13.626;2023-03-12T12:40:51;7.90;99.90
40291;DHT22;26000;48.304;13.626;2023-03-12T12:43:28;7.90;99.90
40291;DHT22;26000;48.304;13.626;2023-03-12T12:46:14;7.80;99.90
40291;DHT22;26000;48.304;13.626;2023-03-12T12:48:46;7.60;99.90
40291;DHT22;26000;48.304;13.626;2023-03-12T12:51:14;7.60;99.90
40291;DHT22;26000;48.304;13.626;2023-03-12T12:54:05;7.60;99.90
40291;DHT22;26000;48.304;13.626;2023-03-12T12:59:41;7.30;99.90
40291;DHT22;26000;48.304;13.626;2023-03-12T13:02:29;7.40;99.90
40291;DHT22;26000;48.304;13.626;2023-03-12T13:04:57;7.40;99.90
40291;DHT22;26000;48.304;13.626;2023-03-12T13:09:49;7.40;99.90
40291;DHT22;26000;48.304;13.626;2023-03-12T13:14:55;7.60;99.90
40291;DHT22;26000;48.304;13.626;2023-03-12T13:17:27;7.60;99.90
40291;DHT22;26000;48.304;13.626;2023-03-12T13:19:59;7.60;99.90
40291;DHT22;26000;48.304;13.626;2023-03-12T13:30:58;7.40;99.90
40291;DHT22;26000;48.304;13.626;2023-03-12T13:33:40;7.40;99.90
40291;DHT22;26000;48.304;13.626;2023-03-12T13:46:48;7.60;99.90
40291;DHT22;26000;48.304;13.626;2023-03-12T13:49:15;7.50;99.90
40291;DHT22;26000;48.304;13.626;2023-03-12T13:51:52;7.50;99.90
40291;DHT22;26000;48.304;13.626;2023-03-12T13:54:19;7.60;99.90
40291;DHT22;26000;48.304;13.626;2023-03-12T13:59:49;7.60;99.90
40291;DHT22;26000;48.304;13.626;2023-03-12T14:02:31;7.50;99.90
40291;DHT22;26000;48.304;13.626;2023-03-12T14:05:08;7.60;99.90
40291;DHT22;26000;48.304;13.626;2023-03-12T14:13:06;7.60;99.90
40291;DHT22;26000;48.304;13.626;2023-03-12T14:18:24;7.50;99.90
40291;DHT22;26000;48.304;13.626;2023-03-12T14:20:55;7.40;99.90
40291;DHT22;26000;48.304;13.626;2023-03-12T14:23:24;7.50;99.90
40291;DHT22;26000;48.304;13.626;2023-03-12T14:25:58;7.50;99.90
40291;DHT22;26000;48.304;13.626;2023-03-12T14:28:25;7.50;99.90
40291;DHT22;26000;48.304;13.626;2023-03-12T14:31:03;7.50;99.90
40291;DHT22;26000;48.304;13.626;2023-03-12T14:33:34;7.60;99.90
40291;DHT22;26000;48.304;13.626;2023-03-12T14:36:28;7.60;99.90
40291;DHT22;26000;48.304;13.626;2023-03-12T14:39:00;7.60;99.90
40291;DHT22;26000;48.304;13.626;2023-03-12T14:41:41;7.60;99.90
40291;DHT22;26000;48.304;13.626;2023-03-12T14:44:23;7.60;99.90
40291;DHT22;26000;48.304;13.626;2023-03-12T14:47:01;7.50;99.90
40291;DHT22;26000;48.304;13.626;2023-03-12T14:49:29;7.40;99.90
40291;DHT22;26000;48.304;13.626;2023-03-12T14:51:56;7.40;99.90
40291;DHT22;26000;48.304;13.626;2023-03-12T14:54:26;7.30;99.90
40291;DHT22;26000;48.304;13.626;2023-03-12T14:56:52;7.30;99.90
40291;DHT22;26000;48.304;13.626;2023-03-12T14:59:30;7.30;99.90
40291;DHT22;26000;48.304;13.626;2023-03-12T15:02:17;7.10;99.90
40291;DHT22;26000;48.304;13.626;2023-03-12T15:04:44;7.10;99.90
40291;DHT22;26000;48.304;13.626;2023-03-12T15:07:12;7.00;99.90
40291;DHT22;26000;48.304;13.626;2023-03-12T15:09:45;7.00;99.90
40291;DHT22;26000;48.304;13.626;2023-03-12T15:12:34;6.90;99.90
40291;DHT22;26000;48.304;13.626;2023-03-12T15:15:07;6.80;99.90
40291;DHT22;26000;48.304;13.626;2023-03-12T15:17:34;6.80;99.90
40291;DHT22;26000;48.304;13.626;2023-03-12T15:20:04;6.80;99.90
40291;DHT22;26000;48.304;13.626;2023-03-12T15:22:33;6.70;99.90
40291;DHT22;26000;48.304;13.626;2023-03-12T15:25:21;6.80;99.90
40291;DHT22;26000;48.304;13.626;2023-03-12T15:27:48;6.80;99.90
40291;DHT22;26000;48.304;13.626;2023-03-12T15:30:22;6.80;99.90
40291;DHT22;26000;48.304;13.626;2023-03-12T15:35:33;6.80;99.90
40291;DHT22;26000;48.304;13.626;2023-03-12T15:38:00;6.80;99.90
40291;DHT22;26000;48.304;13.626;2023-03-12T15:40:28;6.80;99.90
40291;DHT22;26000;48.304;13.626;2023-03-12T15:42:54;6.90;99.90
40291;DHT22;26000;48.304;13.626;2023-03-12T15:45:37;6.90;99.90
40291;DHT22;26000;48.304;13.626;2023-03-12T15:48:31;6.80;99.90
40291;DHT22;26000;48.304;13.626;2023-03-12T15:50:58;6.90;99.90
40291;DHT22;26000;48.304;13.626;2023-03-12T15:53:32;6.90;99.90
40291;DHT22;26000;48.304;13.626;2023-03-12T15:56:21;7.00;99.90
40291;DHT22;26000;48.304;13.626;2023-03-12T15:59:20;7.00;99.90
40291;DHT22;26000;48.304;13.626;2023-03-12T16:01:49;7.00;99.90
40291;DHT22;26000;48.304;13.626;2023-03-12T16:04:15;6.90;99.90
40291;DHT22;26000;48.304;13.626;2023-03-12T16:06:41;6.90;99.90
40291;DHT22;26000;48.304;13.626;2023-03-12T16:09:13;6.90;99.90
40291;DHT22;26000;48.304;13.626;2023-03-12T16:11:41;6.90;99.90
40291;DHT22;26000;48.304;13.626;2023-03-12T16:16:38;6.90;99.90
40291;DHT22;26000;48.304;13.626;2023-03-12T16:19:10;6.80;99.90
40291;DHT22;26000;48.304;13.626;2023-03-12T16:21:36;6.80;99.90
40291;DHT22;26000;48.304;13.626;2023-03-12T16:24:01;6.80;99.90
40291;DHT22;26000;48.304;13.626;2023-03-12T16:26:27;6.80;99.90
40291;DHT22;26000;48.304;13.626;2023-03-12T16:28:53;6.80;99.90
40291;DHT22;26000;48.304;13.626;2023-03-12T16:31:18;6.80;99.90
40291;DHT22;26000;48.304;13.626;2023-03-12T16:33:44;6.90;99.90
40291;DHT22;26000;48.304;13.626;2023-03-12T16:36:14;6.90;99.90
40291;DHT22;26000;48.304;13.626;2023-03-12T16:38:42;6.80;99.90
40291;DHT22;26000;48.304;13.626;2023-03-12T16:41:11;6.90;99.90
40291;DHT22;26000;48.304;13.626;2023-03-12T16:43:38;6.80;99.90
40291;DHT22;26000;48.304;13.626;2023-03-12T16:46:07;6.80;99.90
40291;DHT22;26000;48.304;13.626;2023-03-12T16:48:33;6.80;99.90
40291;DHT22;26000;48.304;13.626;2023-03-12T16:50:59;6.70;99.90
40291;DHT22;26000;48.304;13.626;2023-03-12T16:53:25;6.80;99.90
40291;DHT22;26000;48.304;13.626;2023-03-12T16:55:58;7.10;99.90
40291;DHT22;26000;48.304;13.626;2023-03-12T16:58:26;7.40;99.90
40291;DHT22;26000;48.304;13.626;2023-03-12T17:00:53;7.50;99.90
40291;DHT22;26000;48.304;13.626;2023-03-12T17:03:35;7.50;99.90
40291;DHT22;26000;48.304;13.626;2023-03-12T17:06:01;7.40;99.90
40291;DHT22;26000;48.304;13.626;2023-03-12T17:08:27;7.40;99.90
40291;DHT22;26000;48.304;13.626;2023-03-12T17:10:54;7.30;99.90
40291;DHT22;26000;48.304;13.626;2023-03-12T17:13:23;7.20;99.90
40291;DHT22;26000;48.304;13.626;2023-03-12T17:15:49;7.10;99.90
40291;DHT22;26000;48.304;13.626;2023-03-12T17:18:15;7.10;99.90
40291;DHT22;26000;48.304;13.626;2023-03-12T17:20:41;7.00;99.90
40291;DHT22;26000;48.304;13.626;2023-03-12T17:23:07;7.00;99.90
40291;DHT22;26000;48.304;13.626;2023-03-12T17:25:35;7.00;99.90
40291;DHT22;26000;48.304;13.626;2023-03-12T17:28:01;6.90;99.90